Time;durP1;ratioP1;P1;durP2;ratioP2;P2;SDS_P1;SDS_P2;PMS_P1;PMS_P2;Temp;Humidity;BMP_temperature;BMP_pressure;BME280_temperature;BME280_humidity;BME280_pressure;Samples;Min_cycle;Max_cycle;Signal;HPM_P1;HPM_P2
2023/03/31 00:00:35;;;;;;;9.23;2.75;;;;;;;9.91;100.00;100323.66;5109462;28;20486;-74
2023/03/31 00:03:01;;;;;;;3.50;1.70;;;;;;;9.92;100.00;100321.78;5109682;28;20127;-75
2023/03/31 00:05:27;;;;;;;7.82;2.83;;;;;;;9.95;100.00;100316.88;5091637;28;20039;-75
2023/03/31 00:08:02;;;;;;;9.57;2.10;;;;;;;9.94;100.00;100304.59;5109694;28;20035;-68
2023/03/31 00:10:30;;;;;;;7.25;2.25;;;;;;;9.97;100.00;100303.34;5109421;28;20489;-68
2023/03/31 00:12:56;;;;;;;4.50;1.83;;;;;;;9.98;100.00;100295.16;5109071;28;20048;-68
2023/03/31 00:15:22;;;;;;;7.20;2.20;;;;;;;9.98;100.00;100289.00;5090813;28;20065;-68
2023/03/31 00:17:48;;;;;;;6.18;1.70;;;;;;;9.99;100.00;100285.31;5109113;28;20031;-68
2023/03/31 00:20:14;;;;;;;5.63;2.42;;;;;;;9.94;100.00;100269.94;5109449;28;20114;-68
2023/03/31 00:22:41;;;;;;;7.68;1.98;;;;;;;9.99;100.00;100272.00;5109467;28;20098;-68
2023/03/31 00:25:08;;;;;;;6.93;2.00;;;;;;;9.97;100.00;100264.22;5108942;28;20039;-68
2023/03/31 00:27:34;;;;;;;7.28;2.40;;;;;;;9.98;100.00;100252.53;5091023;28;20441;-68
2023/03/31 00:29:59;;;;;;;7.95;1.83;;;;;;;9.99;100.00;100245.38;5109141;28;20089;-68
2023/03/31 00:32:25;;;;;;;5.80;1.60;;;;;;;9.98;100.00;100236.56;5108838;28;20024;-68
2023/03/31 00:34:50;;;;;;;7.38;2.10;;;;;;;9.94;100.00;100234.50;5109143;28;20040;-68
2023/03/31 00:37:15;;;;;;;5.65;1.58;;;;;;;9.99;100.00;100232.84;5109234;28;20027;-68
2023/03/31 00:39:42;;;;;;;8.38;1.77;;;;;;;9.97;100.00;100229.56;5109331;28;20092;-68
2023/03/31 00:42:11;;;;;;;3.25;1.60;;;;;;;9.96;100.00;100224.47;5090761;28;20387;-68
2023/03/31 00:44:59;;;;;;;7.55;2.20;;;;;;;9.92;100.00;100215.25;5109046;28;20020;-67
2023/03/31 00:47:28;;;;;;;8.48;2.45;;;;;;;9.90;100.00;100217.28;5109009;28;20537;-68
2023/03/31 00:49:56;;;;;;;4.10;1.40;;;;;;;9.86;100.00;100200.91;5109112;28;20059;-68
2023/03/31 00:52:36;;;;;;;7.40;1.90;;;;;;;9.80;100.00;100191.09;5108659;28;20066;-68
2023/03/31 00:55:07;;;;;;;5.93;2.25;;;;;;;9.80;100.00;100185.78;5108907;28;20032;-68
2023/03/31 00:57:38;;;;;;;13.13;2.72;;;;;;;9.79;100.00;100184.13;5109234;28;20030;-68
2023/03/31 01:00:17;;;;;;;4.32;1.75;;;;;;;9.77;100.00;100180.84;5108683;28;20035;-68
2023/03/31 01:02:56;;;;;;;5.07;1.98;;;;;;;9.76;100.00;100180.03;5109367;28;20019;-68
2023/03/31 01:05:27;;;;;;;7.40;2.20;;;;;;;9.73;100.00;100172.47;5108943;28;20115;-74
2023/03/31 01:07:54;;;;;;;4.23;1.70;;;;;;;9.71;100.00;100179.84;5108615;28;20034;-74
2023/03/31 01:10:21;;;;;;;4.50;1.40;;;;;;;9.73;100.00;100175.13;5104082;28;20294;-73
2023/03/31 01:12:51;;;;;;;5.38;1.83;;;;;;;9.73;100.00;100166.31;5088972;28;20544;-74
2023/03/31 01:15:16;;;;;;;4.35;1.88;;;;;;;9.73;100.00;100161.81;5089515;28;20025;-74
2023/03/31 01:17:43;;;;;;;8.82;2.42;;;;;;;9.77;100.00;100162.19;5089142;28;20386;-74
2023/03/31 01:20:20;;;;;;;10.57;5.05;;;;;;;9.81;100.00;100158.13;5089317;28;20056;-74
2023/03/31 01:23:29;;;;;;;12.88;1.75;;;;;;;9.82;100.00;100143.75;5089213;28;20020;-74
2023/03/31 01:26:15;;;;;;;6.82;1.52;;;;;;;9.82;100.00;100143.75;5089134;28;20054;-74
2023/03/31 01:28:59;;;;;;;3.40;1.55;;;;;;;9.83;100.00;100132.09;5090874;28;20028;-74
2023/03/31 01:31:50;;;;;;;8.10;1.90;;;;;;;9.83;100.00;100124.91;5092943;28;20499;-74
2023/03/31 01:34:33;;;;;;;4.60;1.90;;;;;;;9.85;100.00;100128.19;5092911;28;20034;-74
2023/03/31 01:37:44;;;;;;;9.23;2.03;;;;;;;9.85;100.00;100122.88;5092932;28;20031;-74
2023/03/31 01:40:32;;;;;;;7.03;2.42;;;;;;;9.85;100.00;100109.56;5092968;28;20497;-74
2023/03/31 01:43:10;;;;;;;8.45;1.80;;;;;;;9.82;100.00;100099.31;5078919;28;20036;-75
2023/03/31 01:45:41;;;;;;;9.13;1.75;;;;;;;9.80;100.00;100101.38;5092963;28;20533;-74
2023/03/31 01:48:13;;;;;;;7.87;2.47;;;;;;;9.84;100.00;100101.75;5092443;28;20020;-74
2023/03/31 01:51:02;;;;;;;8.50;1.98;;;;;;;9.83;100.00;100087.63;5092677;28;20031;-74
2023/03/31 01:54:10;;;;;;;4.43;1.20;;;;;;;9.84;100.00;100086.59;5092625;28;20031;-74
2023/03/31 01:57:15;;;;;;;9.52;1.98;;;;;;;9.84;100.00;100078.59;5027106;28;20074;-75
2023/03/31 02:00:07;;;;;;;12.80;2.85;;;;;;;9.85;100.00;100071.41;5103974;28;20026;-73
2023/03/31 02:02:40;;;;;;;7.53;2.00;;;;;;;9.84;100.00;100062.63;5111975;28;20020;-74
2023/03/31 02:05:14;;;;;;;9.00;2.95;;;;;;;9.82;100.00;100061.19;5111858;28;20114;-74
2023/03/31 02:07:44;;;;;;;6.88;1.45;;;;;;;9.81;100.00;100054.25;5092002;28;20028;-74
2023/03/31 02:10:11;;;;;;;8.05;2.63;;;;;;;9.79;100.00;100040.31;5111955;28;20493;-74
2023/03/31 02:12:40;;;;;;;5.55;2.22;;;;;;;9.80;100.00;100036.66;5111391;28;20043;-74
2023/03/31 02:15:11;;;;;;;11.35;2.53;;;;;;;9.76;100.00;100025.59;5111934;28;20039;-74
2023/03/31 02:17:40;;;;;;;9.13;1.90;;;;;;;9.74;100.00;100010.84;5111569;28;20035;-74
2023/03/31 02:20:11;;;;;;;6.93;1.45;;;;;;;9.79;100.00;100011.84;5111514;28;20024;-73
2023/03/31 02:22:41;;;;;;;3.10;1.48;;;;;;;9.77;100.00;100000.59;5111843;28;20019;-74
2023/03/31 02:25:10;;;;;;;11.88;2.15;;;;;;;9.74;100.00;99989.53;5111773;28;20118;-74
2023/03/31 02:27:42;;;;;;;10.25;2.05;;;;;;;9.76;100.00;99979.50;5111823;28;20032;-74
2023/03/31 02:30:09;;;;;;;11.27;2.45;;;;;;;9.74;100.00;99970.91;5091740;28;20051;-74
2023/03/31 02:32:38;;;;;;;8.82;1.77;;;;;;;9.78;100.00;99969.47;5091671;28;20031;-74
2023/03/31 02:35:06;;;;;;;16.42;2.38;;;;;;;9.78;100.00;99956.97;5091592;28;20485;-68
2023/03/31 02:37:32;;;;;;;8.18;2.22;;;;;;;9.79;100.00;99953.25;5092042;28;20702;-68
2023/03/31 02:40:03;;;;;;;10.57;2.28;;;;;;;9.78;100.00;99938.31;5091321;28;20497;-68
2023/03/31 02:42:29;;;;;;;10.65;2.42;;;;;;;9.79;100.00;99937.28;5091646;28;20106;-68
2023/03/31 02:45:01;;;;;;;12.10;2.58;;;;;;;9.79;100.00;99928.47;5091590;28;20119;-68
2023/03/31 02:47:27;;;;;;;6.72;2.08;;;;;;;9.76;100.00;99921.72;5091423;28;20026;-68
2023/03/31 02:49:56;;;;;;;9.88;2.58;;;;;;;9.79;100.00;99918.63;5091499;28;20119;-68
2023/03/31 02:52:28;;;;;;;9.25;2.53;;;;;;;9.80;100.00;99911.50;5091411;28;20024;-67
2023/03/31 02:55:11;;;;;;;5.53;2.30;;;;;;;9.81;100.00;99892.63;5091582;28;20027;-67
2023/03/31 02:57:51;;;;;;;8.25;3.88;;;;;;;9.82;100.00;99904.91;5073342;28;20081;-68
2023/03/31 03:00:23;;;;;;;9.30;1.92;;;;;;;9.81;100.00;99886.47;5091077;28;20055;-68
2023/03/31 03:03:15;;;;;;;9.85;2.63;;;;;;;9.82;100.00;99874.78;5091431;28;20036;-67
2023/03/31 03:06:16;;;;;;;11.25;2.65;;;;;;;9.81;100.00;99857.19;5091773;28;20371;-68
2023/03/31 03:09:05;;;;;;;10.25;2.50;;;;;;;9.79;100.00;99852.06;4989207;28;20222;-68
2023/03/31 03:11:46;;;;;;;13.85;2.75;;;;;;;9.80;100.00;99842.25;5085376;28;20044;-68
2023/03/31 03:14:31;;;;;;;9.43;1.77;;;;;;;9.79;100.00;99841.41;5091158;28;20036;-67
2023/03/31 03:17:11;;;;;;;10.55;2.28;;;;;;;9.80;100.00;99828.94;5090997;28;20270;-68
2023/03/31 03:19:36;;;;;;;6.57;2.08;;;;;;;9.79;100.00;99835.28;5091288;28;20508;-68
2023/03/31 03:22:02;;;;;;;11.85;3.78;;;;;;;9.77;100.00;99821.34;5090931;28;20036;-67
2023/03/31 03:24:33;;;;;;;12.88;2.25;;;;;;;9.79;100.00;99827.28;5090844;28;20039;-67
2023/03/31 03:26:59;;;;;;;3.70;2.28;;;;;;;9.78;100.00;99825.66;5090782;28;20040;-67
2023/03/31 03:29:26;;;;;;;7.07;2.20;;;;;;;9.78;100.00;99820.34;5090823;28;20026;-67
2023/03/31 03:31:51;;;;;;;5.30;1.88;;;;;;;9.77;100.00;99826.69;5090602;28;20069;-67
2023/03/31 03:34:18;;;;;;;10.75;2.05;;;;;;;9.77;100.00;99822.19;5090622;28;20399;-67
2023/03/31 03:36:45;;;;;;;10.02;1.88;;;;;;;9.72;100.00;99813.19;5090712;28;20024;-68
2023/03/31 03:39:11;;;;;;;11.00;2.67;;;;;;;9.74;100.00;99803.16;5090524;28;20618;-68
2023/03/31 03:41:37;;;;;;;11.68;2.53;;;;;;;9.75;100.00;99808.28;5091143;28;20032;-68
2023/03/31 03:44:03;;;;;;;4.65;1.90;;;;;;;9.75;100.00;99810.94;5090437;28;20036;-68
2023/03/31 03:46:28;;;;;;;8.75;2.95;;;;;;;9.73;100.00;99807.66;5090607;28;20016;-67
2023/03/31 03:48:54;;;;;;;10.13;2.15;;;;;;;9.72;100.00;99792.75;5090451;28;20088;-67
2023/03/31 03:51:20;;;;;;;10.40;2.42;;;;;;;9.71;100.00;99785.75;5089711;28;20756;-67
2023/03/31 03:53:45;;;;;;;5.80;3.03;;;;;;;9.71;100.00;99780.44;5090807;28;20035;-67
2023/03/31 03:56:11;;;;;;;9.50;2.00;;;;;;;9.70;100.00;99773.50;5090351;28;20038;-67
2023/03/31 03:58:36;;;;;;;9.70;2.55;;;;;;;9.69;100.00;99768.38;5071953;28;20139;-67
2023/03/31 04:01:01;;;;;;;12.68;2.67;;;;;;;9.70;100.00;99756.72;5090067;28;20036;-68
2023/03/31 04:03:27;;;;;;;6.43;2.08;;;;;;;9.66;100.00;99743.81;5089975;28;20024;-67
2023/03/31 04:05:52;;;;;;;9.60;1.80;;;;;;;9.66;100.00;99741.16;5090002;28;20036;-68
2023/03/31 04:08:18;;;;;;;9.23;4.05;;;;;;;9.64;100.00;99729.94;5090155;28;20489;-68
2023/03/31 04:10:47;;;;;;;9.68;1.80;;;;;;;9.63;100.00;99728.28;5089688;28;20089;-67
2023/03/31 04:13:14;;;;;;;9.50;1.80;;;;;;;9.63;100.00;99716.81;5089742;28;20495;-67
2023/03/31 04:15:40;;;;;;;5.85;1.83;;;;;;;9.59;100.00;99719.13;5089952;28;20063;-68
2023/03/31 04:18:05;;;;;;;11.43;2.95;;;;;;;9.61;100.00;99714.38;5071632;28;20222;-67
2023/03/31 04:20:30;;;;;;;7.75;1.83;;;;;;;9.61;100.00;99711.72;5089946;28;20053;-67
2023/03/31 04:22:56;;;;;;;9.70;2.20;;;;;;;9.60;100.00;99701.28;5089643;28;20021;-67
2023/03/31 04:25:22;;;;;;;12.27;1.95;;;;;;;9.58;100.00;99696.19;5089808;28;20069;-67
2023/03/31 04:27:53;;;;;;;10.35;2.50;;;;;;;9.57;100.00;99683.91;5089661;28;20031;-68
2023/03/31 04:30:23;;;;;;;10.45;1.95;;;;;;;9.53;100.00;99674.72;5089732;28;20040;-68
2023/03/31 04:32:54;;;;;;;6.97;2.08;;;;;;;9.56;100.00;99674.31;5089668;28;20580;-67
2023/03/31 04:35:23;;;;;;;16.45;2.58;;;;;;;9.51;100.00;99647.53;5089790;28;20106;-68
2023/03/31 04:37:51;;;;;;;9.70;3.15;;;;;;;9.56;100.00;99655.69;5089636;28;20034;-68
2023/03/31 04:40:17;;;;;;;10.48;2.58;;;;;;;9.53;100.00;99645.44;5089639;28;20036;-67
2023/03/31 04:42:43;;;;;;;9.35;2.55;;;;;;;9.53;100.00;99639.31;5089714;28;20391;-67
2023/03/31 04:45:12;;;;;;;11.55;3.90;;;;;;;9.52;100.00;99641.16;5089625;28;20032;-67
2023/03/31 04:47:37;;;;;;;11.70;3.60;;;;;;;9.51;100.00;99633.38;5089454;28;20032;-68
2023/03/31 04:50:03;;;;;;;10.35;2.50;;;;;;;9.51;100.00;99626.25;5089409;28;20528;-67
2023/03/31 04:52:29;;;;;;;9.18;2.28;;;;;;;9.51;100.00;99622.75;5089267;28;20036;-68
2023/03/31 04:54:54;;;;;;;6.30;1.92;;;;;;;9.44;100.00;99607.66;5089186;28;20652;-73
2023/03/31 04:57:20;;;;;;;3.78;2.10;;;;;;;9.51;100.00;99618.25;5089713;28;20391;-72
2023/03/31 04:59:45;;;;;;;7.47;2.03;;;;;;;9.50;100.00;99613.13;5089284;28;20052;-72
2023/03/31 05:02:11;;;;;;;5.72;1.65;;;;;;;9.50;100.00;99607.81;5089931;28;20402;-73
2023/03/31 05:04:36;;;;;;;10.23;2.10;;;;;;;9.48;100.00;99601.91;5093879;28;20027;-72
2023/03/31 05:07:02;;;;;;;5.15;1.80;;;;;;;9.50;100.00;99602.50;5093006;28;20054;-73
2023/03/31 05:09:27;;;;;;;7.15;1.88;;;;;;;9.50;100.00;99597.16;5093291;28;20054;-72
2023/03/31 05:11:53;;;;;;;4.07;1.67;;;;;;;9.49;100.00;99596.38;5083795;28;20078;-73
2023/03/31 05:14:19;;;;;;;7.85;2.60;;;;;;;9.50;100.00;99590.00;5090501;28;20031;-73
2023/03/31 05:16:45;;;;;;;4.57;2.20;;;;;;;9.47;100.00;99590.44;5056786;28;20041;-67
2023/03/31 05:19:10;;;;;;;6.07;2.30;;;;;;;9.48;100.00;99585.94;5073208;28;20119;-74
2023/03/31 05:21:36;;;;;;;8.50;3.60;;;;;;;9.42;100.00;99576.97;5071414;28;20024;-74
2023/03/31 05:24:03;;;;;;;5.75;2.33;;;;;;;9.44;100.00;99574.91;5070925;28;20082;-70
2023/03/31 05:26:29;;;;;;;15.95;3.67;;;;;;;9.41;100.00;99559.41;5073743;28;20971;-74
2023/03/31 05:28:54;;;;;;;3.30;1.75;;;;;;;9.43;100.00;99557.31;5035740;28;20036;-73
2023/03/31 05:31:19;;;;;;;7.90;2.05;;;;;;;9.42;100.00;99553.03;5072531;28;20530;-74
2023/03/31 05:33:45;;;;;;;4.55;2.13;;;;;;;9.39;100.00;99540.16;5072333;28;20032;-73
2023/03/31 05:36:14;;;;;;;5.35;1.77;;;;;;;9.43;100.00;99551.97;5072787;28;20480;-73
2023/03/31 05:38:40;;;;;;;11.75;2.63;;;;;;;9.44;100.00;99540.31;5072375;28;20035;-73
2023/03/31 05:41:08;;;;;;;8.65;1.95;;;;;;;9.44;100.00;99538.47;5074389;28;20032;-74
2023/03/31 05:43:34;;;;;;;6.15;1.60;;;;;;;9.45;100.00;99531.28;5073502;28;20016;-75
2023/03/31 05:46:00;;;;;;;5.18;1.50;;;;;;;9.48;100.00;99528.19;5072606;28;20039;-70
2023/03/31 05:48:26;;;;;;;6.93;2.67;;;;;;;9.45;100.00;99533.97;5071981;28;21009;-75
2023/03/31 05:50:55;;;;;;;7.13;1.70;;;;;;;9.46;100.00;99527.63;5073195;28;20028;-74
2023/03/31 05:53:21;;;;;;;7.30;1.98;;;;;;;9.39;100.00;99516.22;5072133;28;20040;-75
2023/03/31 05:55:46;;;;;;;6.05;2.53;;;;;;;9.43;100.00;99522.72;5073790;28;20332;-72
2023/03/31 05:58:11;;;;;;;4.13;1.50;;;;;;;9.44;100.00;99522.50;5075301;28;20033;-70
2023/03/31 06:00:37;;;;;;;4.07;1.20;;;;;;;9.45;100.00;99520.66;5072198;28;20052;-72
2023/03/31 06:03:02;;;;;;;2.83;1.10;;;;;;;9.48;100.00;99530.84;5072862;28;20060;-73
2023/03/31 06:05:29;;;;;;;10.30;3.25;;;;;;;9.48;100.00;99517.53;5055548;28;20043;-73
2023/03/31 06:07:55;;;;;;;3.78;1.30;;;;;;;9.51;100.00;99513.63;5072318;28;20056;-73
2023/03/31 06:10:20;;;;;;;4.07;1.95;;;;;;;9.46;100.00;99503.66;5071665;28;20093;-75
2023/03/31 06:12:46;;;;;;;4.53;1.63;;;;;;;9.45;100.00;99512.66;5061993;28;20432;-70
2023/03/31 06:15:11;;;;;;;6.15;1.77;;;;;;;9.47;100.00;99505.28;5057968;28;20082;-70
2023/03/31 06:17:37;;;;;;;4.22;1.52;;;;;;;9.48;100.00;99503.44;5046468;28;20480;-70
2023/03/31 06:20:04;;;;;;;3.08;1.60;;;;;;;9.45;100.00;99502.03;5059052;28;20024;-69
2023/03/31 06:22:29;;;;;;;8.27;2.95;;;;;;;9.45;100.00;99515.31;5058750;28;20013;-70
2023/03/31 06:24:55;;;;;;;5.70;3.10;;;;;;;9.42;100.00;99505.13;5058482;28;20029;-71
2023/03/31 06:27:20;;;;;;;4.40;1.40;;;;;;;9.41;100.00;99499.00;5058549;28;20116;-70
2023/03/31 06:29:45;;;;;;;4.13;1.60;;;;;;;9.37;100.00;99487.16;5058413;28;20059;-69
2023/03/31 06:32:11;;;;;;;3.78;1.33;;;;;;;9.33;100.00;99479.88;5057975;28;20047;-70
2023/03/31 06:34:36;;;;;;;1.77;1.35;;;;;;;9.34;100.00;99478.81;5058825;28;20035;-70
2023/03/31 06:37:02;;;;;;;5.05;1.60;;;;;;;9.26;100.00;99465.81;5057978;28;20037;-69
2023/03/31 06:39:27;;;;;;;3.97;1.63;;;;;;;9.30;100.00;99461.66;5067545;28;20044;-72
2023/03/31 06:41:52;;;;;;;9.40;1.70;;;;;;;9.36;100.00;99463.47;5071152;28;20021;-71
2023/03/31 06:44:21;;;;;;;3.58;1.77;;;;;;;9.35;100.00;99456.50;5052740;28;20036;-71
2023/03/31 06:46:47;;;;;;;6.70;2.15;;;;;;;9.36;100.00;99452.81;5071091;28;20037;-71
2023/03/31 06:49:12;;;;;;;9.38;1.90;;;;;;;9.37;100.00;99465.06;5071266;28;20051;-71
2023/03/31 06:51:38;;;;;;;5.65;2.00;;;;;;;9.35;100.00;99449.34;5071319;28;20035;-71
2023/03/31 06:54:03;;;;;;;5.03;1.80;;;;;;;9.33;100.00;99471.88;5071380;28;20119;-71
2023/03/31 06:56:28;;;;;;;3.60;1.88;;;;;;;9.31;100.00;99463.31;5053150;28;20027;-71
2023/03/31 06:58:54;;;;;;;5.43;2.08;;;;;;;9.23;100.00;99429.03;5071142;28;20119;-71
2023/03/31 07:01:19;;;;;;;4.00;1.63;;;;;;;9.25;100.00;99449.06;5053219;28;20040;-71
2023/03/31 07:03:45;;;;;;;4.57;1.42;;;;;;;9.24;100.00;99468.69;5070830;28;20032;-71
2023/03/31 07:06:10;;;;;;;4.72;1.20;;;;;;;9.25;100.00;99465.00;5053058;28;20039;-71
2023/03/31 07:08:35;;;;;;;7.22;2.00;;;;;;;9.20;100.00;99455.03;5053011;28;20027;-71
2023/03/31 07:11:01;;;;;;;4.57;1.80;;;;;;;9.25;100.00;99456.19;5053075;28;20484;-71
2023/03/31 07:13:27;;;;;;;7.80;1.95;;;;;;;9.28;100.00;99455.78;5089621;28;20053;-71
2023/03/31 07:15:53;;;;;;;5.70;2.35;;;;;;;9.29;100.00;99455.53;5090533;28;20107;-71
2023/03/31 07:18:19;;;;;;;5.97;1.85;;;;;;;9.32;100.00;99459.59;5090215;28;20510;-71
2023/03/31 07:20:49;;;;;;;4.35;1.95;;;;;;;9.32;100.00;99449.78;5090293;28;20020;-71
2023/03/31 07:23:15;;;;;;;7.53;2.58;;;;;;;9.30;100.00;99437.72;5090191;28;20044;-72
2023/03/31 07:25:40;;;;;;;7.22;2.75;;;;;;;9.37;100.00;99457.09;5088977;28;20054;-72
2023/03/31 07:28:06;;;;;;;9.27;2.60;;;;;;;9.46;100.00;99444.28;5090344;28;20031;-72
2023/03/31 07:30:31;;;;;;;4.22;1.88;;;;;;;9.50;100.00;99427.66;5090496;28;20040;-71
2023/03/31 07:32:57;;;;;;;8.52;2.30;;;;;;;9.59;100.00;99434.31;5071740;28;20036;-72
2023/03/31 07:35:23;;;;;;;7.38;2.78;;;;;;;9.66;100.00;99428.88;5089893;28;20119;-72
2023/03/31 07:37:49;;;;;;;7.93;2.72;;;;;;;9.73;100.00;99420.81;5089920;28;20031;-72
2023/03/31 07:40:22;;;;;;;9.13;2.40;;;;;;;9.75;100.00;99410.75;5089828;28;20479;-72
2023/03/31 07:42:48;;;;;;;9.57;3.28;;;;;;;9.83;100.00;99418.41;5089569;28;20024;-72
2023/03/31 07:45:15;;;;;;;3.95;2.38;;;;;;;9.82;100.00;99414.09;5089954;28;20028;-72
2023/03/31 07:47:48;;;;;;;7.13;2.20;;;;;;;9.86;100.00;99409.97;5067466;27;20407;-70
2023/03/31 07:50:14;;;;;;;9.95;2.30;;;;;;;9.90;100.00;99410.31;5066871;28;20057;-70
2023/03/31 07:52:40;;;;;;;6.68;2.00;;;;;;;9.91;100.00;99409.28;5066781;28;20503;-70
2023/03/31 07:55:07;;;;;;;7.38;2.03;;;;;;;9.94;100.00;99414.16;5060729;28;20042;-69
2023/03/31 07:57:33;;;;;;;6.97;2.30;;;;;;;9.99;100.00;99398.31;5050531;28;20464;-68
2023/03/31 07:59:58;;;;;;;5.65;2.00;;;;;;;10.00;100.00;99403.38;5052364;28;20040;-70
2023/03/31 08:02:24;;;;;;;5.00;2.42;;;;;;;10.06;100.00;99404.31;5050421;28;20066;-71
2023/03/31 08:04:49;;;;;;;7.22;1.92;;;;;;;10.10;100.00;99397.50;5052747;28;20120;-69
2023/03/31 08:07:15;;;;;;;8.65;2.00;;;;;;;10.14;100.00;99397.84;5051281;28;20106;-67
2023/03/31 08:09:44;;;;;;;6.68;2.33;;;;;;;10.22;100.00;99395.69;5051948;28;20017;-70
2023/03/31 08:12:10;;;;;;;11.20;3.42;;;;;;;10.34;100.00;99390.38;5064589;28;20032;-70
2023/03/31 08:14:35;;;;;;;9.52;2.08;;;;;;;10.51;100.00;99395.84;5066256;28;20028;-70
2023/03/31 08:17:01;;;;;;;9.15;2.55;;;;;;;10.61;100.00;99385.41;5066568;28;20021;-70
2023/03/31 08:19:26;;;;;;;9.07;3.00;;;;;;;10.74;100.00;99389.66;5066189;28;20069;-70
2023/03/31 08:21:52;;;;;;;15.30;3.53;;;;;;;10.78;100.00;99388.16;5065019;28;20538;-70
2023/03/31 08:24:18;;;;;;;15.15;3.35;;;;;;;10.83;100.00;99388.28;5064571;28;20033;-71
2023/03/31 08:26:44;;;;;;;9.48;3.35;;;;;;;10.82;100.00;99381.34;5066129;28;20067;-70
2023/03/31 08:29:10;;;;;;;9.43;3.97;;;;;;;10.86;100.00;99387.81;5065850;28;20028;-70
2023/03/31 08:31:35;;;;;;;11.93;4.35;;;;;;;10.87;100.00;99386.78;5065697;28;20387;-70
2023/03/31 08:34:01;;;;;;;9.60;2.80;;;;;;;10.93;100.00;99387.69;5065784;28;20480;-70
2023/03/31 08:36:27;;;;;;;5.50;3.20;;;;;;;11.01;100.00;99375.84;5065735;28;20459;-70
2023/03/31 08:38:53;;;;;;;11.95;3.75;;;;;;;11.07;100.00;99380.22;5066019;28;20163;-70
2023/03/31 08:41:30;;;;;;;8.80;2.65;;;;;;;11.16;100.00;99376.13;5065578;28;20044;-70
2023/03/31 08:43:58;;;;;;;6.55;2.53;;;;;;;11.26;100.00;99372.84;5065490;28;20131;-70
2023/03/31 08:46:27;;;;;;;11.38;3.55;;;;;;;11.31;100.00;99376.44;5065196;28;20049;-69
2023/03/31 08:48:57;;;;;;;12.18;3.33;;;;;;;11.32;100.00;99371.94;5065642;28;20017;-70
2023/03/31 08:51:35;;;;;;;12.82;2.50;;;;;;;11.39;100.00;99369.91;5065287;28;20024;-70
2023/03/31 08:54:09;;;;;;;8.73;3.42;;;;;;;11.42;100.00;99372.09;5065254;28;20162;-70
2023/03/31 08:56:39;;;;;;;10.15;3.10;;;;;;;11.52;100.00;99371.47;5065167;28;20115;-70
2023/03/31 08:59:12;;;;;;;12.13;3.22;;;;;;;11.57;100.00;99371.56;5052428;28;20614;-70
2023/03/31 09:01:43;;;;;;;14.45;3.38;;;;;;;11.62;100.00;99369.78;5052247;28;20031;-70
2023/03/31 09:04:30;;;;;;;15.77;4.72;;;;;;;11.68;100.00;99367.22;5051958;28;20029;-70
2023/03/31 09:07:05;;;;;;;16.83;3.00;;;;;;;11.68;100.00;99365.34;5051808;28;20036;-70
2023/03/31 09:09:52;;;;;;;10.70;2.28;;;;;;;11.70;100.00;99362.44;5051716;28;20043;-70
2023/03/31 09:12:27;;;;;;;16.13;2.78;;;;;;;11.74;100.00;99358.25;5051834;28;20671;-70
2023/03/31 09:15:00;;;;;;;14.77;2.40;;;;;;;11.80;100.00;99359.97;5051770;28;20029;-70
2023/03/31 09:17:30;;;;;;;12.70;4.80;;;;;;;11.87;100.00;99357.16;5052036;28;20556;-70
2023/03/31 09:20:02;;;;;;;10.43;3.05;;;;;;;11.94;100.00;99361.28;5051536;28;20392;-70
2023/03/31 09:22:34;;;;;;;9.02;2.45;;;;;;;12.02;100.00;99347.53;5051521;28;20024;-70
2023/03/31 09:25:02;;;;;;;9.85;2.75;;;;;;;12.17;100.00;99352.31;5051604;28;20098;-70
2023/03/31 09:27:31;;;;;;;13.02;4.72;;;;;;;12.35;100.00;99350.44;5051301;28;20029;-70
2023/03/31 09:30:30;;;;;;;13.05;4.50;;;;;;;12.46;100.00;99346.84;5051461;28;20491;-70
2023/03/31 09:33:18;;;;;;;16.63;3.85;;;;;;;12.56;100.00;99336.28;5051371;28;20021;-70
2023/03/31 09:35:44;;;;;;;15.68;3.88;;;;;;;12.58;100.00;99339.53;5051304;28;20028;-70
2023/03/31 09:38:13;;;;;;;15.73;5.07;;;;;;;12.72;100.00;99335.44;5051355;28;20032;-71
2023/03/31 09:40:38;;;;;;;14.40;2.70;;;;;;;12.74;100.00;99343.22;5051200;28;20411;-70
2023/03/31 09:43:19;;;;;;;12.15;2.38;;;;;;;12.67;100.00;99338.03;5050113;28;20029;-70
2023/03/31 09:45:44;;;;;;;10.52;2.15;;;;;;;12.64;100.00;99338.53;5049609;28;20457;-70
2023/03/31 09:48:17;;;;;;;12.65;3.45;;;;;;;12.62;100.00;99337.97;5049900;28;20238;-70
2023/03/31 09:50:47;;;;;;;8.65;2.30;;;;;;;12.50;100.00;99329.25;5051080;28;20036;-70
2023/03/31 09:53:33;;;;;;;13.32;2.50;;;;;;;12.52;100.00;99332.47;5049704;28;20492;-70
2023/03/31 09:56:05;;;;;;;11.00;1.95;;;;;;;12.48;100.00;99328.69;5050951;28;20028;-70
2023/03/31 09:58:30;;;;;;;8.98;1.65;;;;;;;12.53;100.00;99323.41;5050927;28;20036;-70
2023/03/31 10:01:02;;;;;;;13.25;3.22;;;;;;;12.55;100.00;99333.84;5050653;28;20052;-70
2023/03/31 10:03:35;;;;;;;13.73;2.47;;;;;;;12.54;100.00;99329.56;5050839;28;20021;-70
2023/03/31 10:06:01;;;;;;;12.98;2.53;;;;;;;12.53;100.00;99322.63;5050979;28;20021;-70
2023/03/31 10:08:31;;;;;;;7.38;2.92;;;;;;;12.58;100.00;99322.69;5050587;28;20380;-70
2023/03/31 10:11:03;;;;;;;10.38;2.22;;;;;;;12.64;100.00;99321.69;5049747;28;20167;-70
2023/03/31 10:13:57;;;;;;;13.48;2.33;;;;;;;12.69;100.00;99322.56;5050643;28;20056;-70
2023/03/31 10:16:45;;;;;;;16.88;2.72;;;;;;;12.89;100.00;99322.00;5049810;28;20040;-70
2023/03/31 10:19:28;;;;;;;9.98;2.28;;;;;;;13.04;100.00;99315.19;5050421;28;20021;-70
2023/03/31 10:22:03;;;;;;;6.68;1.65;;;;;;;13.09;100.00;99308.03;5050553;28;20438;-69
2023/03/31 10:24:37;;;;;;;7.22;2.45;;;;;;;13.15;100.00;99312.41;5050519;28;20017;-70
2023/03/31 10:27:05;;;;;;;10.50;2.47;;;;;;;13.22;100.00;99306.03;5050259;28;20021;-70
2023/03/31 10:29:33;;;;;;;7.25;2.30;;;;;;;13.30;100.00;99306.41;5050202;28;20025;-70
2023/03/31 10:32:17;;;;;;;9.48;2.63;;;;;;;13.15;100.00;99308.91;5050205;28;20487;-70
2023/03/31 10:34:42;;;;;;;6.88;1.70;;;;;;;12.96;100.00;99311.09;5050234;28;20025;-70
2023/03/31 10:37:16;;;;;;;9.10;1.27;;;;;;;12.93;100.00;99311.59;5050172;28;20036;-70
2023/03/31 10:39:42;;;;;;;6.18;2.13;;;;;;;12.95;100.00;99306.81;5049973;28;20468;-70
2023/03/31 10:42:08;;;;;;;5.38;1.90;;;;;;;13.03;100.00;99295.66;5050243;28;20033;-70
2023/03/31 10:44:36;;;;;;;9.32;2.35;;;;;;;13.16;100.00;99305.16;5048687;28;20081;-70
2023/03/31 10:47:12;;;;;;;6.00;1.25;;;;;;;13.22;100.00;99298.00;5049819;28;20127;-70
2023/03/31 10:49:40;;;;;;;10.88;2.92;;;;;;;13.22;99.68;99306.03;5049911;28;20068;-70
2023/03/31 10:52:17;;;;;;;9.77;2.63;;;;;;;13.19;99.00;99301.19;5049775;28;20035;-70
2023/03/31 10:54:47;;;;;;;5.55;1.88;;;;;;;12.97;98.69;99291.31;5049702;28;20051;-70
2023/03/31 10:57:13;;;;;;;13.98;2.67;;;;;;;12.86;99.38;99293.06;5049680;28;20035;-70
2023/03/31 10:59:57;;;;;;;6.07;1.20;;;;;;;12.82;100.00;99291.16;5049728;28;20123;-70
2023/03/31 11:02:47;;;;;;;7.85;1.75;;;;;;;12.89;100.00;99289.91;5048192;28;20021;-70
2023/03/31 11:05:31;;;;;;;6.57;1.70;;;;;;;13.14;100.00;99280.53;5047022;28;20036;-70
2023/03/31 11:08:02;;;;;;;10.48;2.28;;;;;;;13.32;100.00;99277.50;5033789;28;20033;-68
2023/03/31 11:11:10;;;;;;;14.30;2.10;;;;;;;13.48;98.44;99283.81;5034922;28;20372;-69
2023/03/31 11:13:46;;;;;;;9.18;1.63;;;;;;;13.56;98.20;99271.84;5029133;28;20446;-68
2023/03/31 11:16:17;;;;;;;8.00;1.92;;;;;;;13.57;96.05;99274.28;5034004;28;20025;-68
2023/03/31 11:18:52;;;;;;;5.68;1.38;;;;;;;13.51;96.48;99272.59;5035060;28;20539;-67
2023/03/31 11:21:35;;;;;;;13.63;2.88;;;;;;;13.36;98.70;99280.47;5034339;28;20444;-72
2023/03/31 11:24:05;;;;;;;11.25;1.92;;;;;;;13.09;100.00;99267.88;5036026;28;20055;-73
2023/03/31 11:26:34;;;;;;;7.47;3.08;;;;;;;12.89;100.00;99283.72;5049424;28;20028;-73
2023/03/31 11:29:18;;;;;;;8.07;1.65;;;;;;;12.76;100.00;99270.72;5049688;28;20039;-71
2023/03/31 11:31:55;;;;;;;13.45;2.80;;;;;;;12.68;100.00;99264.78;5048217;28;20052;-71
2023/03/31 11:34:30;;;;;;;9.95;1.70;;;;;;;12.72;100.00;99262.41;5049494;28;20025;-71
2023/03/31 11:37:20;;;;;;;15.20;2.72;;;;;;;13.00;100.00;99255.22;5049410;28;20457;-71
2023/03/31 11:40:07;;;;;;;13.10;3.42;;;;;;;13.12;100.00;99262.03;5049536;28;20021;-70
2023/03/31 11:42:41;;;;;;;11.25;2.28;;;;;;;13.30;100.00;99249.38;5049192;28;20029;-71